createdAt,value
2023-03-27T00:01:30.584Z,5.30
2023-03-27T00:03:59.425Z,4.73
2023-03-27T00:06:27.811Z,5.60
2023-03-27T00:08:56.493Z,4.53
2023-03-27T00:11:25.962Z,4.37
2023-03-27T00:13:55.317Z,5.00
2023-03-27T00:16:26.724Z,4.87
2023-03-27T00:18:57.745Z,4.73
2023-03-27T00:21:27.138Z,4.50
2023-03-27T00:23:56.538Z,4.53
2023-03-27T00:26:25.400Z,4.40
2023-03-27T00:28:54.891Z,4.93
2023-03-27T00:31:23.624Z,4.87
2023-03-27T00:33:52.557Z,4.57
2023-03-27T00:36:22.462Z,5.90
2023-03-27T00:38:53.064Z,4.27
2023-03-27T00:41:22.229Z,5.00
2023-03-27T00:43:54.065Z,5.77
2023-03-27T00:46:41.120Z,4.87
2023-03-27T00:49:12.869Z,5.00
2023-03-27T00:51:46.652Z,5.17
2023-03-27T00:54:21.763Z,4.23
2023-03-27T00:56:50.777Z,4.93
2023-03-27T00:59:22.032Z,4.80
2023-03-27T01:01:51.301Z,4.80
2023-03-27T01:04:21.477Z,5.00
2023-03-27T01:06:54.912Z,4.57
2023-03-27T01:09:27.237Z,3.37
2023-03-27T01:12:27.800Z,4.00
2023-03-27T01:15:21.475Z,4.87
2023-03-27T01:18:14.378Z,3.60
2023-03-27T01:21:26.108Z,5.37
2023-03-27T01:24:27.260Z,3.77
2023-03-27T01:27:07.568Z,4.17
2023-03-27T01:29:46.931Z,4.33
2023-03-27T01:32:51.311Z,3.83
2023-03-27T01:35:49.078Z,5.53
2023-03-27T01:38:41.687Z,4.07
2023-03-27T01:41:16.179Z,4.03
2023-03-27T01:43:51.763Z,3.93
2023-03-27T01:46:25.957Z,3.67
2023-03-27T01:49:00.889Z,3.77
2023-03-27T01:51:34.169Z,4.10
2023-03-27T01:54:08.958Z,4.10
2023-03-27T01:56:51.653Z,4.73
2023-03-27T01:59:23.272Z,4.40
2023-03-27T02:01:57.497Z,4.97
2023-03-27T02:04:30.105Z,6.77
2023-03-27T02:07:03.207Z,4.20
2023-03-27T02:09:37.409Z,4.67
2023-03-27T02:12:12.712Z,3.97
2023-03-27T02:14:47.467Z,4.83
2023-03-27T02:17:20.424Z,3.77
2023-03-27T02:19:56.196Z,4.17
2023-03-27T02:22:37.351Z,3.93
2023-03-27T02:25:26.161Z,4.77
2023-03-27T02:28:15.603Z,4.57
2023-03-27T02:31:05.361Z,4.60
2023-03-27T02:33:53.985Z,3.97
2023-03-27T02:36:31.523Z,5.13
2023-03-27T02:39:02.792Z,4.30
2023-03-27T02:41:37.590Z,4.13
2023-03-27T02:44:32.595Z,3.70
2023-03-27T02:47:08.729Z,4.97
2023-03-27T02:49:41.840Z,3.23
2023-03-27T02:52:14.848Z,4.60
2023-03-27T02:54:49.874Z,3.10
2023-03-27T02:57:25.108Z,3.27
2023-03-27T03:00:25.527Z,4.10
2023-03-27T03:03:18.723Z,3.80
2023-03-27T03:05:56.077Z,4.33
2023-03-27T03:08:30.602Z,3.70
2023-03-27T03:11:06.043Z,3.70
2023-03-27T03:13:35.645Z,4.27
2023-03-27T03:16:06.306Z,4.00
2023-03-27T03:18:35.592Z,3.17
2023-03-27T03:21:04.745Z,4.53
2023-03-27T03:23:34.047Z,3.83
2023-03-27T03:26:03.653Z,3.20
2023-03-27T03:29:00.882Z,4.40
2023-03-27T03:31:44.150Z,3.87
2023-03-27T03:34:16.230Z,3.23
2023-03-27T03:36:49.101Z,4.27
2023-03-27T03:39:20.858Z,4.40
2023-03-27T03:41:51.823Z,4.67
2023-03-27T03:44:21.133Z,3.57
2023-03-27T03:46:51.134Z,5.60
2023-03-27T03:49:22.881Z,4.97
2023-03-27T03:52:03.619Z,3.80
2023-03-27T03:54:33.969Z,4.37
2023-03-27T03:57:03.203Z,4.33
2023-03-27T03:59:33.548Z,5.23
2023-03-27T04:02:29.396Z,4.47
2023-03-27T04:05:09.735Z,6.03
2023-03-27T04:07:41.046Z,4.63
2023-03-27T04:10:33.927Z,4.27
2023-03-27T04:13:06.363Z,4.97
2023-03-27T04:15:39.219Z,4.47
2023-03-27T04:18:09.220Z,3.83
2023-03-27T04:20:39.612Z,4.87
2023-03-27T04:23:11.423Z,5.07
2023-03-27T04:25:42.415Z,4.70
2023-03-27T04:28:16.800Z,3.87
2023-03-27T04:30:50.578Z,4.07
2023-03-27T04:33:46.437Z,5.07
2023-03-27T04:36:39.656Z,5.10
2023-03-27T04:39:16.681Z,4.67
2023-03-27T04:41:49.210Z,4.67
2023-03-27T04:44:18.645Z,5.03
2023-03-27T04:46:50.025Z,4.07
2023-03-27T04:49:20.406Z,4.20
2023-03-27T04:51:58.051Z,3.87
2023-03-27T04:54:31.688Z,4.03
2023-03-27T04:57:03.306Z,4.50
2023-03-27T04:59:32.267Z,4.40
2023-03-27T05:02:27.879Z,5.13
2023-03-27T05:05:05.169Z,4.57
2023-03-27T05:07:37.348Z,3.67
2023-03-27T05:10:08.295Z,4.80
2023-03-27T05:12:37.730Z,4.10
2023-03-27T05:15:07.120Z,3.97
2023-03-27T05:17:41.690Z,4.77
2023-03-27T05:20:15.134Z,3.70
2023-03-27T05:22:45.296Z,4.07
2023-03-27T05:25:27.311Z,4.17
2023-03-27T05:27:57.145Z,4.80
2023-03-27T05:30:30.257Z,5.73
2023-03-27T05:33:16.416Z,4.13
2023-03-27T05:35:47.282Z,5.80
2023-03-27T05:38:17.274Z,4.17
2023-03-27T05:41:05.111Z,5.20
2023-03-27T05:43:38.211Z,4.60
2023-03-27T05:46:07.665Z,4.40
2023-03-27T05:48:38.575Z,5.17
2023-03-27T05:51:09.415Z,4.30
2023-03-27T05:53:39.647Z,4.43
2023-03-27T05:56:18.854Z,4.77
2023-03-27T05:58:56.364Z,4.53
2023-03-27T06:01:26.312Z,5.23
2023-03-27T06:03:57.403Z,4.10
2023-03-27T06:06:32.717Z,4.17
2023-03-27T06:09:01.492Z,4.90
2023-03-27T06:11:31.619Z,4.57
2023-03-27T06:14:00.347Z,5.00
2023-03-27T06:16:44.852Z,4.90
2023-03-27T06:19:32.121Z,4.73
2023-03-27T06:22:02.134Z,4.80
2023-03-27T06:24:31.472Z,3.53
2023-03-27T06:27:02.868Z,4.67
2023-03-27T06:29:34.090Z,3.20
2023-03-27T06:32:02.793Z,4.33
2023-03-27T06:34:36.134Z,4.03
2023-03-27T06:37:33.788Z,3.43
2023-03-27T06:40:04.644Z,4.00
2023-03-27T06:42:34.700Z,4.53
2023-03-27T06:45:24.385Z,4.20
2023-03-27T06:48:28.720Z,5.00
2023-03-27T06:50:59.355Z,3.57
2023-03-27T06:53:32.279Z,3.87
2023-03-27T06:56:05.058Z,4.40
2023-03-27T06:58:52.592Z,3.80
2023-03-27T07:01:24.140Z,5.27
2023-03-27T07:04:02.993Z,4.47
2023-03-27T07:07:07.789Z,4.20
2023-03-27T07:09:42.111Z,4.30
2023-03-27T07:12:15.698Z,3.67
2023-03-27T07:14:46.868Z,4.87
2023-03-27T07:17:15.932Z,4.30
2023-03-27T07:19:56.669Z,3.77
2023-03-27T07:22:28.811Z,4.00
2023-03-27T07:25:01.262Z,4.00
2023-03-27T07:27:38.793Z,3.63
2023-03-27T07:30:09.024Z,5.67
2023-03-27T07:32:38.174Z,6.23
2023-03-27T07:35:09.818Z,4.53
2023-03-27T07:37:57.682Z,3.87
2023-03-27T07:40:40.826Z,4.80
2023-03-27T07:43:42.258Z,4.10
2023-03-27T07:46:11.645Z,5.53
2023-03-27T07:48:41.254Z,5.70
2023-03-27T07:51:17.586Z,4.07
2023-03-27T07:53:46.974Z,4.57
2023-03-27T07:56:24.606Z,4.30
2023-03-27T07:59:11.701Z,4.60
2023-03-27T08:01:42.440Z,4.57
2023-03-27T08:04:11.632Z,5.63
2023-03-27T08:06:42.700Z,3.87
2023-03-27T08:09:19.226Z,4.37
2023-03-27T08:11:50.541Z,5.37
2023-03-27T08:14:19.347Z,4.03
2023-03-27T08:16:48.150Z,4.60
2023-03-27T08:19:18.665Z,5.60
2023-03-27T08:21:51.090Z,4.80
2023-03-27T08:24:20.831Z,4.43
2023-03-27T08:27:09.429Z,6.10
2023-03-27T08:29:43.402Z,5.30
2023-03-27T08:32:12.066Z,5.30
2023-03-27T08:34:44.084Z,4.70
2023-03-27T08:37:13.326Z,4.07
2023-03-27T08:40:02.316Z,5.47
2023-03-27T08:42:39.353Z,4.80
2023-03-27T08:45:15.581Z,4.77
2023-03-27T08:47:52.831Z,4.90
2023-03-27T08:50:39.553Z,4.87
2023-03-27T08:53:21.070Z,4.73
2023-03-27T08:55:49.877Z,3.47
2023-03-27T08:58:25.688Z,4.73
2023-03-27T09:01:20.205Z,4.50
2023-03-27T09:03:53.847Z,3.80
2023-03-27T09:06:28.266Z,4.43
2023-03-27T09:09:08.668Z,3.33
2023-03-27T09:11:49.012Z,8.17
2023-03-27T09:14:31.426Z,3.87
2023-03-27T09:17:05.914Z,3.60
2023-03-27T09:19:44.429Z,4.77
2023-03-27T09:22:23.629Z,3.70
2023-03-27T09:25:19.030Z,3.20
2023-03-27T09:27:50.719Z,3.77
2023-03-27T09:30:36.606Z,5.33
2023-03-27T09:33:12.956Z,3.70
2023-03-27T09:35:44.194Z,3.70
2023-03-27T09:38:27.958Z,2.83
2023-03-27T09:41:00.104Z,4.00
2023-03-27T09:43:37.503Z,3.00
2023-03-27T09:46:08.774Z,5.70
2023-03-27T09:48:45.100Z,5.73
2023-03-27T09:51:41.241Z,4.57
2023-03-27T09:54:18.869Z,2.80
2023-03-27T09:56:51.946Z,4.67
2023-03-27T09:59:25.099Z,3.67
2023-03-27T10:01:59.077Z,4.87
2023-03-27T10:04:30.288Z,2.87
2023-03-27T10:07:05.551Z,2.83
2023-03-27T10:10:08.415Z,2.43
2023-03-27T10:12:57.135Z,3.27
2023-03-27T10:15:36.401Z,2.57
2023-03-27T10:18:09.676Z,4.13
2023-03-27T10:20:38.821Z,3.50
2023-03-27T10:23:10.081Z,3.10
2023-03-27T10:25:50.061Z,3.43
2023-03-27T10:28:30.844Z,2.10
2023-03-27T10:31:34.043Z,2.50
2023-03-27T10:34:36.572Z,3.70
2023-03-27T10:37:23.228Z,4.23
2023-03-27T10:40:00.534Z,3.00
2023-03-27T10:42:37.283Z,5.43
2023-03-27T10:45:07.787Z,4.00
2023-03-27T10:47:36.907Z,3.27
2023-03-27T10:50:15.078Z,3.43
2023-03-27T10:52:57.853Z,4.27
2023-03-27T10:55:48.564Z,3.13
2023-03-27T10:58:25.688Z,4.50
2023-03-27T11:01:00.147Z,4.03
2023-03-27T11:03:35.403Z,4.37
2023-03-27T11:06:15.325Z,3.90
2023-03-27T11:09:05.586Z,3.87
2023-03-27T11:11:40.934Z,3.60
2023-03-27T11:14:16.715Z,3.93
2023-03-27T11:16:49.968Z,3.97
2023-03-27T11:19:56.685Z,4.70
2023-03-27T11:22:47.718Z,3.77
2023-03-27T11:25:41.052Z,3.10
2023-03-27T11:28:25.004Z,4.17
2023-03-27T11:30:57.950Z,3.80
2023-03-27T11:33:37.213Z,4.70
2023-03-27T11:36:30.833Z,4.83
2023-03-27T11:39:19.978Z,3.80
2023-03-27T11:41:53.720Z,4.10
2023-03-27T11:44:24.570Z,3.60
2023-03-27T11:47:28.936Z,3.57
2023-03-27T11:50:15.984Z,4.47
2023-03-27T11:52:57.088Z,4.87
2023-03-27T11:56:07.771Z,3.37
2023-03-27T11:58:45.870Z,3.63
2023-03-27T12:01:22.711Z,3.60
2023-03-27T12:04:18.054Z,5.37
2023-03-27T12:07:36.141Z,5.40
2023-03-27T12:10:27.447Z,4.53
2023-03-27T12:13:55.047Z,3.90
2023-03-27T12:17:01.250Z,4.87
2023-03-27T12:20:18.974Z,4.00
2023-03-27T12:22:59.700Z,5.00
2023-03-27T12:26:01.907Z,3.47
2023-03-27T12:29:22.691Z,3.37
2023-03-27T12:32:16.528Z,3.53
2023-03-27T12:34:54.378Z,4.90
2023-03-27T12:37:29.950Z,4.00
2023-03-27T12:40:00.639Z,5.03
2023-03-27T12:42:52.093Z,4.70
2023-03-27T12:45:27.467Z,5.47
2023-03-27T12:48:19.170Z,3.20
2023-03-27T12:50:58.138Z,6.40
2023-03-27T12:53:49.960Z,4.90
2023-03-27T12:56:35.825Z,5.10
2023-03-27T12:59:19.764Z,6.00
2023-03-27T13:02:17.747Z,7.00
2023-03-27T13:05:26.873Z,5.03
2023-03-27T13:08:14.470Z,4.90
2023-03-27T13:11:23.403Z,3.90
2023-03-27T13:14:28.204Z,3.60
2023-03-27T13:17:15.533Z,5.23
2023-03-27T13:19:59.542Z,6.60
2023-03-27T13:23:00.757Z,4.37
2023-03-27T13:25:39.612Z,5.00
2023-03-27T13:28:34.469Z,4.23
2023-03-27T13:31:35.344Z,3.57
2023-03-27T13:34:34.112Z,4.37
2023-03-27T13:37:49.058Z,3.60
2023-03-27T13:40:27.307Z,4.17
2023-03-27T13:43:22.897Z,3.80
2023-03-27T13:46:01.419Z,6.23
2023-03-27T13:49:16.680Z,4.40
2023-03-27T13:52:39.772Z,4.53
2023-03-27T13:55:34.629Z,5.27
2023-03-27T13:58:48.552Z,5.03
2023-03-27T14:01:37.275Z,3.97
2023-03-27T14:04:36.709Z,4.77
2023-03-27T14:07:43.754Z,3.60
2023-03-27T14:10:40.846Z,3.93
2023-03-27T14:13:28.947Z,4.17
2023-03-27T14:16:37.388Z,3.93
2023-03-27T14:19:37.440Z,3.67
2023-03-27T14:22:14.436Z,5.27
2023-03-27T14:24:57.256Z,4.00
2023-03-27T14:27:36.316Z,4.00
2023-03-27T14:30:15.720Z,4.77
2023-03-27T14:32:50.088Z,3.23
2023-03-27T14:35:33.313Z,4.33
2023-03-27T14:38:16.759Z,4.17
2023-03-27T14:40:50.306Z,5.17
2023-03-27T14:43:23.083Z,4.93
2023-03-27T14:46:00.535Z,4.30
2023-03-27T14:48:33.447Z,6.37
2023-03-27T14:51:07.248Z,4.90
2023-03-27T14:53:44.443Z,4.37
2023-03-27T14:56:27.764Z,4.43
2023-03-27T14:59:08.120Z,4.23
2023-03-27T15:01:49.831Z,3.07
2023-03-27T15:04:19.458Z,3.37
2023-03-27T15:06:50.165Z,3.27
2023-03-27T15:09:38.986Z,3.37
2023-03-27T15:12:11.355Z,2.97
2023-03-27T15:14:42.428Z,4.37
2023-03-27T15:17:15.902Z,3.97
2023-03-27T15:19:49.103Z,3.70
2023-03-27T15:22:23.751Z,4.57
2023-03-27T15:24:56.785Z,2.83
2023-03-27T15:27:30.005Z,3.30
2023-03-27T15:30:03.800Z,3.93
2023-03-27T15:32:42.527Z,3.53
2023-03-27T15:35:17.992Z,3.77
2023-03-27T15:37:47.133Z,3.73
2023-03-27T15:40:36.621Z,4.23
2023-03-27T15:43:21.040Z,3.13
2023-03-27T15:46:14.952Z,3.63
2023-03-27T15:48:46.037Z,3.83
2023-03-27T15:51:30.097Z,3.23
2023-03-27T15:53:59.091Z,3.57
2023-03-27T15:56:30.285Z,3.30
2023-03-27T15:59:01.574Z,3.33
2023-03-27T16:01:34.831Z,4.37
2023-03-27T16:04:08.708Z,3.73
2023-03-27T16:06:40.846Z,3.60
2023-03-27T16:09:25.006Z,4.33
2023-03-27T16:11:55.172Z,2.97
2023-03-27T16:14:32.135Z,2.53
2023-03-27T16:17:22.490Z,3.90
2023-03-27T16:19:53.892Z,3.63
2023-03-27T16:22:24.673Z,3.80
2023-03-27T16:24:54.222Z,3.53
2023-03-27T16:27:24.445Z,2.97
2023-03-27T16:29:53.789Z,3.10
2023-03-27T16:32:24.305Z,3.47
2023-03-27T16:34:53.410Z,4.37
2023-03-27T16:37:24.194Z,4.00
2023-03-27T16:39:54.233Z,3.07
2023-03-27T16:42:26.614Z,2.67
2023-03-27T16:44:55.922Z,4.30
2023-03-27T16:47:25.950Z,3.53
2023-03-27T16:50:10.177Z,2.83
2023-03-27T16:52:39.187Z,3.37
2023-03-27T16:55:09.050Z,5.13
2023-03-27T16:57:37.750Z,3.93
2023-03-27T17:00:09.742Z,4.40
2023-03-27T17:02:39.687Z,3.37
2023-03-27T17:05:10.112Z,4.67
2023-03-27T17:07:38.593Z,4.17
2023-03-27T17:10:10.303Z,3.30
2023-03-27T17:12:38.954Z,3.67
2023-03-27T17:15:09.054Z,3.23
2023-03-27T17:17:38.941Z,3.57
2023-03-27T17:20:09.231Z,4.10
2023-03-27T17:22:37.764Z,4.10
2023-03-27T17:25:07.652Z,4.77
2023-03-27T17:27:36.876Z,4.10
2023-03-27T17:30:07.201Z,4.10
2023-03-27T17:32:35.701Z,3.83
2023-03-27T17:35:06.455Z,5.83
2023-03-27T17:37:36.093Z,4.97
2023-03-27T17:40:09.500Z,4.87
2023-03-27T17:42:38.552Z,4.57
2023-03-27T17:45:07.769Z,4.40
2023-03-27T17:47:36.469Z,4.17
2023-03-27T17:50:07.977Z,4.60
2023-03-27T17:52:36.404Z,3.80
2023-03-27T17:55:06.472Z,4.77
2023-03-27T17:57:38.011Z,7.90
2023-03-27T18:00:09.586Z,4.50
2023-03-27T18:02:41.308Z,4.37
2023-03-27T18:05:12.162Z,3.90
2023-03-27T18:07:42.200Z,4.20
2023-03-27T18:10:14.417Z,3.63
2023-03-27T18:12:42.836Z,4.00
2023-03-27T18:15:12.044Z,4.77
2023-03-27T18:17:41.547Z,4.57
2023-03-27T18:20:12.850Z,4.97
2023-03-27T18:22:41.510Z,3.90
2023-03-27T18:25:11.596Z,4.70
2023-03-27T18:27:41.166Z,4.80
2023-03-27T18:30:12.670Z,6.50
2023-03-27T18:32:42.656Z,5.43
2023-03-27T18:35:14.268Z,4.70
2023-03-27T18:37:44.220Z,4.03
2023-03-27T18:40:15.323Z,4.73
2023-03-27T18:42:44.952Z,4.70
2023-03-27T18:45:15.526Z,4.53
2023-03-27T18:47:44.921Z,5.73
2023-03-27T18:50:15.819Z,5.50
2023-03-27T18:52:44.641Z,6.20
2023-03-27T18:55:13.789Z,6.17
2023-03-27T18:57:42.277Z,5.43
2023-03-27T19:00:18.276Z,5.87
2023-03-27T19:02:47.946Z,5.60
2023-03-27T19:05:18.838Z,5.93
2023-03-27T19:07:47.418Z,5.93
2023-03-27T19:10:16.178Z,6.43
2023-03-27T19:12:49.709Z,6.40
2023-03-27T19:15:42.195Z,6.00
2023-03-27T19:18:30.439Z,6.67
2023-03-27T19:21:20.933Z,7.87
2023-03-27T19:24:02.863Z,19.00
2023-03-27T19:26:38.591Z,16.77
2023-03-27T19:29:07.689Z,18.47
2023-03-27T19:31:36.993Z,16.70
2023-03-27T19:34:06.096Z,17.63
2023-03-27T19:36:36.610Z,17.97
2023-03-27T19:39:05.551Z,17.30
2023-03-27T19:41:34.353Z,16.90
2023-03-27T19:44:03.502Z,15.90
2023-03-27T19:46:33.754Z,16.43
2023-03-27T19:49:02.335Z,16.47
2023-03-27T19:51:52.803Z,18.53
2023-03-27T19:54:21.302Z,17.73
2023-03-27T19:56:50.071Z,18.10
2023-03-27T19:59:29.818Z,19.03
2023-03-27T20:01:59.609Z,22.53
2023-03-27T20:04:28.176Z,26.60
2023-03-27T20:07:02.005Z,28.23
2023-03-27T20:09:31.409Z,32.50
2023-03-27T20:12:01.421Z,32.27
2023-03-27T20:14:31.272Z,33.93
2023-03-27T20:17:00.269Z,29.80
2023-03-27T20:19:30.474Z,27.87
2023-03-27T20:22:07.649Z,26.63
2023-03-27T20:24:36.690Z,27.10
2023-03-27T20:27:07.147Z,23.63
2023-03-27T20:29:35.861Z,23.53
2023-03-27T20:32:05.797Z,22.57
2023-03-27T20:34:36.546Z,21.20
2023-03-27T20:37:11.981Z,19.90
2023-03-27T20:39:55.571Z,21.63
2023-03-27T20:42:26.771Z,21.87
2023-03-27T20:44:58.116Z,19.90
2023-03-27T20:47:26.994Z,21.20
2023-03-27T20:49:58.790Z,22.27
2023-03-27T20:52:28.994Z,20.47
2023-03-27T20:54:57.577Z,20.40
2023-03-27T20:57:26.693Z,25.13
2023-03-27T20:59:55.316Z,22.17
2023-03-27T21:02:24.468Z,19.53
2023-03-27T21:04:52.984Z,24.57
2023-03-27T21:07:21.825Z,19.30
2023-03-27T21:09:53.128Z,18.07
2023-03-27T21:12:21.912Z,18.00
2023-03-27T21:14:50.432Z,19.33
2023-03-27T21:17:19.257Z,17.93
2023-03-27T21:19:47.821Z,16.33
2023-03-27T21:22:17.161Z,16.03
2023-03-27T21:24:45.769Z,16.20
2023-03-27T21:27:15.883Z,12.83
2023-03-27T21:29:44.380Z,14.40
2023-03-27T21:32:13.146Z,13.70
2023-03-27T21:34:41.899Z,13.07
2023-03-27T21:37:10.619Z,11.80
2023-03-27T21:39:39.043Z,11.73
2023-03-27T21:42:07.781Z,10.60
2023-03-27T21:44:37.566Z,13.60
2023-03-27T21:47:06.429Z,9.73
2023-03-27T21:49:35.001Z,9.47
2023-03-27T21:52:03.660Z,10.67
2023-03-27T21:54:32.178Z,9.77
2023-03-27T21:57:01.022Z,9.93
2023-03-27T21:59:30.215Z,9.60
2023-03-27T22:02:00.288Z,8.83
2023-03-27T22:04:28.917Z,10.10
2023-03-27T22:06:57.668Z,10.17
2023-03-27T22:09:26.081Z,8.47
2023-03-27T22:11:56.795Z,9.17
2023-03-27T22:14:25.302Z,9.57
2023-03-27T22:16:54.310Z,9.43
2023-03-27T22:19:24.230Z,9.77
2023-03-27T22:21:53.251Z,10.63
2023-03-27T22:24:21.664Z,8.37
2023-03-27T22:26:50.717Z,8.03
2023-03-27T22:29:19.134Z,8.33
2023-03-27T22:31:47.916Z,7.27
2023-03-27T22:34:16.445Z,7.43
2023-03-27T22:36:46.511Z,8.33
2023-03-27T22:39:15.036Z,6.63
2023-03-27T22:41:43.696Z,6.50
2023-03-27T22:44:12.155Z,7.60
2023-03-27T22:46:41.286Z,6.37
2023-03-27T22:49:10.143Z,5.40
2023-03-27T22:51:38.844Z,5.83
2023-03-27T22:54:08.934Z,5.13
2023-03-27T22:56:37.760Z,6.63
2023-03-27T22:59:06.225Z,5.73
2023-03-27T23:01:35.021Z,5.80
2023-03-27T23:04:03.562Z,5.80
2023-03-27T23:06:32.366Z,5.73
2023-03-27T23:09:01.088Z,6.20
2023-03-27T23:11:31.320Z,6.33
2023-03-27T23:13:59.796Z,5.60
2023-03-27T23:16:28.750Z,4.47
2023-03-27T23:18:57.230Z,4.57
2023-03-27T23:21:25.925Z,5.30
2023-03-27T23:23:54.341Z,6.20
2023-03-27T23:26:23.100Z,4.73
2023-03-27T23:28:53.317Z,4.07
2023-03-27T23:31:22.165Z,3.93
2023-03-27T23:33:51.575Z,4.90
2023-03-27T23:36:21.881Z,4.23
2023-03-27T23:38:51.517Z,3.53
2023-03-27T23:41:21.262Z,3.93
2023-03-27T23:43:49.903Z,3.50
2023-03-27T23:46:20.120Z,4.03
2023-03-27T23:48:48.629Z,5.53
2023-03-27T23:51:17.795Z,5.50
2023-03-27T23:53:46.275Z,5.03
2023-03-27T23:56:15.045Z,5.40
2023-03-27T23:58:43.814Z,4.20
